createdAt,value
2022-09-03T00:01:55.200Z,46.03
2022-09-03T00:04:32.928Z,46.57
2022-09-03T00:07:08.955Z,46.77
2022-09-03T00:09:43.907Z,46.50
2022-09-03T00:12:19.712Z,46.97
2022-09-03T00:15:01.891Z,46.98
2022-09-03T00:17:41.084Z,47.24
2022-09-03T00:20:11.918Z,47.26
2022-09-03T00:22:58.658Z,47.57
2022-09-03T00:25:43.028Z,47.33
2022-09-03T00:28:19.365Z,47.17
2022-09-03T00:30:53.986Z,47.71
2022-09-03T00:33:28.584Z,47.89
2022-09-03T00:36:02.103Z,46.96
2022-09-03T00:38:30.662Z,47.32
2022-09-03T00:41:03.893Z,47.28
2022-09-03T00:43:52.845Z,47.17
2022-09-03T00:46:27.633Z,47.62
2022-09-03T00:49:16.788Z,47.32
2022-09-03T00:51:56.237Z,47.07
2022-09-03T00:54:40.523Z,47.63
2022-09-03T00:57:44.339Z,47.87
2022-09-03T01:00:22.792Z,47.90
2022-09-03T01:03:08.066Z,47.77
2022-09-03T01:05:38.513Z,47.39
2022-09-03T01:08:33.895Z,48.15
2022-09-03T01:11:04.298Z,48.06
2022-09-03T01:13:43.798Z,48.72
2022-09-03T01:16:47.058Z,48.75
2022-09-03T01:19:35.655Z,48.61
2022-09-03T01:22:28.924Z,48.95
2022-09-03T01:25:18.302Z,48.59
2022-09-03T01:28:02.036Z,48.87
2022-09-03T01:30:38.260Z,48.85
2022-09-03T01:33:14.451Z,49.37
2022-09-03T01:35:47.279Z,48.71
2022-09-03T01:38:47.059Z,49.02
2022-09-03T01:42:20.454Z,48.52
2022-09-03T01:45:30.877Z,49.17
2022-09-03T01:48:33.017Z,49.11
2022-09-03T01:51:21.643Z,49.29
2022-09-03T01:54:23.692Z,49.53
2022-09-03T01:57:35.200Z,49.63
2022-09-03T02:00:13.904Z,49.90
2022-09-03T02:02:46.507Z,49.90
2022-09-03T02:05:32.165Z,49.97
2022-09-03T02:08:07.261Z,49.94
2022-09-03T02:10:52.405Z,50.29
2022-09-03T02:13:28.439Z,50.09
2022-09-03T02:16:03.185Z,50.13
2022-09-03T02:18:38.875Z,50.63
2022-09-03T02:21:07.185Z,50.86
2022-09-03T02:23:34.628Z,50.67
2022-09-03T02:26:03.740Z,50.73
2022-09-03T02:28:32.771Z,51.01
2022-09-03T02:31:00.093Z,50.68
2022-09-03T02:33:28.301Z,50.92
2022-09-03T02:35:55.880Z,50.84
2022-09-03T02:38:26.416Z,51.30
2022-09-03T02:40:54.527Z,51.39
2022-09-03T02:43:42.016Z,51.19
2022-09-03T02:46:17.155Z,51.38
2022-09-03T02:48:45.301Z,51.20
2022-09-03T02:51:13.841Z,51.31
2022-09-03T02:53:42.922Z,51.53
2022-09-03T02:56:10.332Z,51.10
2022-09-03T02:58:37.739Z,51.01
2022-09-03T03:01:05.702Z,51.41
2022-09-03T03:03:33.144Z,51.30
2022-09-03T03:06:04.631Z,51.76
2022-09-03T03:08:34.785Z,52.10
2022-09-03T03:11:02.252Z,51.96
2022-09-03T03:13:31.542Z,52.24
2022-09-03T03:16:06.391Z,52.12
2022-09-03T03:18:34.383Z,52.22
2022-09-03T03:21:10.855Z,52.34
2022-09-03T03:23:39.678Z,52.06
2022-09-03T03:26:13.259Z,51.98
2022-09-03T03:28:42.388Z,51.98
2022-09-03T03:31:23.561Z,52.10
2022-09-03T03:34:00.463Z,52.16
2022-09-03T03:36:31.724Z,52.09
2022-09-03T03:39:01.006Z,52.09
2022-09-03T03:41:34.415Z,51.40
2022-09-03T03:44:06.477Z,52.08
2022-09-03T03:46:40.224Z,52.35
2022-09-03T03:49:09.788Z,52.04
2022-09-03T03:51:38.369Z,52.50
2022-09-03T03:54:06.378Z,52.77
2022-09-03T03:56:36.864Z,52.57
2022-09-03T03:59:04.440Z,52.77
2022-09-03T04:01:34.482Z,52.99
2022-09-03T04:04:01.654Z,52.94
2022-09-03T04:06:29.701Z,52.90
2022-09-03T04:08:56.885Z,52.78
2022-09-03T04:11:25.431Z,52.50
2022-09-03T04:13:52.954Z,52.82
2022-09-03T04:16:28.171Z,52.08
2022-09-03T04:19:00.953Z,52.75
2022-09-03T04:21:30.100Z,52.87
2022-09-03T04:23:58.484Z,52.47
2022-09-03T04:26:31.572Z,52.38
2022-09-03T04:29:05.677Z,52.61
2022-09-03T04:31:34.915Z,52.26
2022-09-03T04:34:02.141Z,52.34
2022-09-03T04:36:31.053Z,52.71
2022-09-03T04:39:01.737Z,52.33
2022-09-03T04:41:31.579Z,52.69
2022-09-03T04:44:00.470Z,52.30
2022-09-03T04:46:33.503Z,52.62
2022-09-03T04:49:02.393Z,52.57
2022-09-03T04:51:31.291Z,52.23
2022-09-03T04:54:01.304Z,52.70
2022-09-03T04:56:35.490Z,52.38
2022-09-03T04:59:07.548Z,52.40
2022-09-03T05:01:37.837Z,52.30
2022-09-03T05:04:06.517Z,52.07
2022-09-03T05:06:35.103Z,52.59
2022-09-03T05:09:03.075Z,52.85
2022-09-03T05:11:30.737Z,52.95
2022-09-03T05:14:00.406Z,52.70
2022-09-03T05:16:30.129Z,52.41
2022-09-03T05:18:59.938Z,52.91
2022-09-03T05:21:28.656Z,52.84
2022-09-03T05:23:55.834Z,52.76
2022-09-03T05:26:27.366Z,52.85
2022-09-03T05:29:02.903Z,52.97
2022-09-03T05:31:32.139Z,53.32
2022-09-03T05:34:02.779Z,53.11
2022-09-03T05:36:34.754Z,53.50
2022-09-03T05:39:02.164Z,53.96
2022-09-03T05:41:30.061Z,53.00
2022-09-03T05:43:59.175Z,53.33
2022-09-03T05:46:32.793Z,53.61
2022-09-03T05:49:06.397Z,53.32
2022-09-03T05:51:36.613Z,53.44
2022-09-03T05:54:03.999Z,53.04
2022-09-03T05:56:33.536Z,52.86
2022-09-03T05:59:05.574Z,52.97
2022-09-03T06:01:51.647Z,53.06
2022-09-03T06:04:20.372Z,53.08
2022-09-03T06:06:49.049Z,53.53
2022-09-03T06:09:19.851Z,53.01
2022-09-03T06:11:50.138Z,52.97
2022-09-03T06:14:17.721Z,53.17
2022-09-03T06:16:52.838Z,53.68
2022-09-03T06:19:20.418Z,53.47
2022-09-03T06:21:48.268Z,52.91
2022-09-03T06:24:26.401Z,52.89
2022-09-03T06:26:56.661Z,52.86
2022-09-03T06:29:23.687Z,53.38
2022-09-03T06:31:51.321Z,52.83
2022-09-03T06:34:18.805Z,52.21
2022-09-03T06:36:46.609Z,51.72
2022-09-03T06:39:13.616Z,51.52
2022-09-03T06:41:40.691Z,51.82
2022-09-03T06:44:11.931Z,51.59
2022-09-03T06:46:42.819Z,51.29
2022-09-03T06:49:11.871Z,51.46
2022-09-03T06:51:39.664Z,51.32
2022-09-03T06:54:09.420Z,51.42
2022-09-03T06:56:40.745Z,51.24
2022-09-03T06:59:14.270Z,51.60
2022-09-03T07:01:45.418Z,51.58
2022-09-03T07:04:16.907Z,50.97
2022-09-03T07:06:47.409Z,51.67
2022-09-03T07:09:15.883Z,51.25
2022-09-03T07:11:47.999Z,50.95
2022-09-03T07:14:18.447Z,50.53
2022-09-03T07:16:46.312Z,50.13
2022-09-03T07:19:13.765Z,49.97
2022-09-03T07:21:46.505Z,49.80
2022-09-03T07:24:16.693Z,50.03
2022-09-03T07:26:46.492Z,49.68
2022-09-03T07:29:15.924Z,49.73
2022-09-03T07:31:44.014Z,49.97
2022-09-03T07:34:13.944Z,50.76
2022-09-03T07:36:48.894Z,50.24
2022-09-03T07:39:18.644Z,50.45
2022-09-03T07:41:46.992Z,50.45
2022-09-03T07:44:19.320Z,49.88
2022-09-03T07:46:47.871Z,49.69
2022-09-03T07:49:15.212Z,48.71
2022-09-03T07:51:42.344Z,49.44
2022-09-03T07:54:11.730Z,49.64
2022-09-03T07:56:40.694Z,49.64
2022-09-03T07:59:09.055Z,49.13
2022-09-03T08:01:38.389Z,48.92
2022-09-03T08:04:09.534Z,48.92
2022-09-03T08:06:38.525Z,49.48
2022-09-03T08:09:09.737Z,48.76
2022-09-03T08:11:39.028Z,48.27
2022-09-03T08:14:09.701Z,47.97
2022-09-03T08:16:42.916Z,48.35
2022-09-03T08:19:12.056Z,48.63
2022-09-03T08:21:41.827Z,48.16
2022-09-03T08:24:11.114Z,48.78
2022-09-03T08:26:50.677Z,48.26
2022-09-03T08:29:19.279Z,47.71
2022-09-03T08:31:46.527Z,47.60
2022-09-03T08:34:14.805Z,47.56
2022-09-03T08:36:42.226Z,47.64
2022-09-03T08:39:11.323Z,46.93
2022-09-03T08:41:53.632Z,47.77
2022-09-03T08:44:40.282Z,47.57
2022-09-03T08:47:44.112Z,46.44
2022-09-03T08:50:29.426Z,46.61
2022-09-03T08:53:19.663Z,46.46
2022-09-03T08:55:55.018Z,45.81
2022-09-03T08:58:27.481Z,45.37
2022-09-03T09:01:34.308Z,45.09
2022-09-03T09:04:07.478Z,45.37
2022-09-03T09:06:52.049Z,44.89
2022-09-03T09:10:00.529Z,45.17
2022-09-03T09:12:46.968Z,45.12
2022-09-03T09:15:30.410Z,44.78
2022-09-03T09:18:11.539Z,44.90
2022-09-03T09:20:57.944Z,44.14
2022-09-03T09:23:57.847Z,44.69
2022-09-03T09:26:28.646Z,43.38
2022-09-03T09:29:10.165Z,44.07
2022-09-03T09:31:45.973Z,44.10
2022-09-03T09:34:15.390Z,44.40
2022-09-03T09:36:54.451Z,43.90
2022-09-03T09:39:32.127Z,43.31
2022-09-03T09:42:12.967Z,43.61
2022-09-03T09:44:44.878Z,42.75
2022-09-03T09:47:31.084Z,42.74
2022-09-03T09:50:02.466Z,43.26
2022-09-03T09:52:31.818Z,42.13
2022-09-03T09:55:19.444Z,42.00
2022-09-03T09:58:04.453Z,41.85
2022-09-03T10:00:37.545Z,41.53
2022-09-03T10:03:13.801Z,42.20
2022-09-03T10:05:58.479Z,41.31
2022-09-03T10:08:31.103Z,41.22
2022-09-03T10:11:05.282Z,41.51
2022-09-03T10:13:45.979Z,40.53
2022-09-03T10:16:30.370Z,41.25
2022-09-03T10:19:17.187Z,40.43
2022-09-03T10:22:19.817Z,41.09
2022-09-03T10:24:59.557Z,41.00
2022-09-03T10:27:30.163Z,40.58
2022-09-03T10:30:09.010Z,40.46
2022-09-03T10:33:19.147Z,40.70
2022-09-03T10:36:04.001Z,40.88
2022-09-03T10:38:41.219Z,40.25
2022-09-03T10:41:32.801Z,40.08
2022-09-03T10:44:35.419Z,39.57
2022-09-03T10:48:04.963Z,39.46
2022-09-03T10:51:04.296Z,40.16
2022-09-03T10:53:55.302Z,39.87
2022-09-03T10:56:51.017Z,38.66
2022-09-03T10:59:35.981Z,38.34
2022-09-03T11:02:33.416Z,38.08
2022-09-03T11:05:22.840Z,38.46
2022-09-03T11:07:59.207Z,37.52
2022-09-03T11:10:42.093Z,37.42
2022-09-03T11:13:20.441Z,37.05
2022-09-03T11:16:04.662Z,37.32
2022-09-03T11:18:40.684Z,38.06
2022-09-03T11:21:13.701Z,38.34
2022-09-03T11:24:13.835Z,37.30
2022-09-03T11:26:48.443Z,36.76
2022-09-03T11:29:25.309Z,37.13
2022-09-03T11:32:10.992Z,36.20
2022-09-03T11:34:54.799Z,37.20
2022-09-03T11:37:23.945Z,35.74
2022-09-03T11:40:11.835Z,36.75
2022-09-03T11:42:45.126Z,37.25
2022-09-03T11:45:30.168Z,37.41
2022-09-03T11:47:59.297Z,36.53
2022-09-03T11:50:33.700Z,37.02
2022-09-03T11:53:19.792Z,37.53
2022-09-03T11:56:14.506Z,36.36
2022-09-03T11:58:43.527Z,36.31
2022-09-03T12:01:18.802Z,35.84
2022-09-03T12:03:58.452Z,35.43
2022-09-03T12:06:56.958Z,35.97
2022-09-03T12:09:42.900Z,36.07
2022-09-03T12:12:29.611Z,36.09
2022-09-03T12:15:35.774Z,36.13
2022-09-03T12:18:19.519Z,37.03
2022-09-03T12:21:06.755Z,36.94
2022-09-03T12:23:42.242Z,36.73
2022-09-03T12:26:19.992Z,36.26
2022-09-03T12:28:56.218Z,36.42
2022-09-03T12:31:31.470Z,35.59
2022-09-03T12:34:10.863Z,36.47
2022-09-03T12:36:42.027Z,35.92
2022-09-03T12:39:17.895Z,35.97
2022-09-03T12:42:06.544Z,36.27
2022-09-03T12:44:42.239Z,35.71
2022-09-03T12:50:13.763Z,36.01
2022-09-03T12:53:01.808Z,35.61
2022-09-03T12:55:45.331Z,35.39
2022-09-03T12:58:28.385Z,36.55
2022-09-03T13:01:17.048Z,35.77
2022-09-03T13:03:50.063Z,35.82
2022-09-03T13:06:23.135Z,35.68
2022-09-03T13:08:54.995Z,35.11
2022-09-03T13:11:24.640Z,35.17
2022-09-03T13:13:55.365Z,35.83
2022-09-03T13:16:45.238Z,35.68
2022-09-03T13:19:37.710Z,35.03
2022-09-03T13:22:43.496Z,34.42
2022-09-03T13:25:16.375Z,35.75
2022-09-03T13:28:07.282Z,35.93
2022-09-03T13:31:29.003Z,34.71
2022-09-03T13:34:09.629Z,34.07
2022-09-03T13:36:56.135Z,35.09
2022-09-03T13:39:52.574Z,35.11
2022-09-03T13:42:41.852Z,34.73
2022-09-03T13:45:27.431Z,34.81
2022-09-03T13:48:21.276Z,34.43
2022-09-03T13:51:14.684Z,34.34
2022-09-03T13:54:11.607Z,35.73
2022-09-03T13:57:01.140Z,35.90
2022-09-03T13:59:52.719Z,36.45
2022-09-03T14:02:36.891Z,37.34
2022-09-03T14:05:11.884Z,37.96
2022-09-03T14:07:45.392Z,38.27
2022-09-03T14:10:21.952Z,38.12
2022-09-03T14:13:02.236Z,36.47
2022-09-03T14:16:00.715Z,36.91
2022-09-03T14:18:39.887Z,35.37
2022-09-03T14:21:22.689Z,35.67
2022-09-03T14:24:01.723Z,36.13
2022-09-03T14:26:39.155Z,37.45
2022-09-03T14:29:14.316Z,37.45
2022-09-03T14:31:44.788Z,36.49
2022-09-03T14:34:31.290Z,36.89
2022-09-03T14:37:09.773Z,37.10
2022-09-03T14:40:03.264Z,37.38
2022-09-03T14:42:40.905Z,37.98
2022-09-03T14:45:08.217Z,38.21
2022-09-03T14:48:06.351Z,37.12
2022-09-03T14:50:41.124Z,36.93
2022-09-03T14:53:29.890Z,37.66
2022-09-03T14:56:38.617Z,37.68
2022-09-03T14:59:40.486Z,37.22
2022-09-03T15:02:31.805Z,37.08
2022-09-03T15:05:12.388Z,36.37
2022-09-03T15:07:45.535Z,36.55
2022-09-03T15:10:23.507Z,37.32
2022-09-03T15:13:09.673Z,37.15
2022-09-03T15:15:54.432Z,38.42
2022-09-03T15:18:30.716Z,38.08
2022-09-03T15:21:13.424Z,36.85
2022-09-03T15:23:54.851Z,36.25
2022-09-03T15:26:43.028Z,36.61
2022-09-03T15:29:22.864Z,37.05
2022-09-03T15:32:06.546Z,36.05
2022-09-03T15:34:57.933Z,36.08
2022-09-03T15:37:42.537Z,36.04
2022-09-03T15:40:27.851Z,35.85
2022-09-03T15:43:23.811Z,36.59
2022-09-03T15:45:59.414Z,36.30
2022-09-03T15:48:48.701Z,35.94
2022-09-03T15:51:47.174Z,35.68
2022-09-03T15:54:31.841Z,35.87
2022-09-03T15:57:17.736Z,35.69
2022-09-03T16:00:11.620Z,36.00
2022-09-03T16:03:00.929Z,37.19
2022-09-03T16:05:45.654Z,37.28
2022-09-03T16:08:46.811Z,38.18
2022-09-03T16:11:27.100Z,38.48
2022-09-03T16:13:59.495Z,39.30
2022-09-03T16:16:52.444Z,39.17
2022-09-03T16:19:24.181Z,38.59
2022-09-03T16:22:19.408Z,39.46
2022-09-03T16:25:03.714Z,38.93
2022-09-03T16:28:11.427Z,38.71
2022-09-03T16:30:50.520Z,39.33
2022-09-03T16:33:23.696Z,39.70
2022-09-03T16:36:07.345Z,39.58
2022-09-03T16:39:12.843Z,39.02
2022-09-03T16:42:18.659Z,39.23
2022-09-03T16:44:54.650Z,39.57
2022-09-03T16:48:09.929Z,39.47
2022-09-03T16:50:51.963Z,39.40
2022-09-03T16:53:44.238Z,40.24
2022-09-03T16:56:25.900Z,40.26
2022-09-03T16:58:53.643Z,40.53
2022-09-03T17:01:30.269Z,40.07
2022-09-03T17:04:45.253Z,40.04
2022-09-03T17:07:36.986Z,40.46
2022-09-03T17:10:45.856Z,40.76
2022-09-03T17:13:24.933Z,40.93
2022-09-03T17:16:31.969Z,41.33
2022-09-03T17:19:47.559Z,41.62
2022-09-03T17:22:39.835Z,41.80
2022-09-03T17:25:24.535Z,42.07
2022-09-03T17:28:24.779Z,42.35
2022-09-03T17:31:06.446Z,42.92
2022-09-03T17:33:36.403Z,41.97
2022-09-03T17:36:22.326Z,42.30
2022-09-03T17:38:59.559Z,43.05
2022-09-03T17:41:34.745Z,43.58
2022-09-03T17:44:18.624Z,42.88
2022-09-03T17:47:06.456Z,42.31
2022-09-03T17:49:50.506Z,42.04
2022-09-03T17:52:23.738Z,41.98
2022-09-03T17:55:00.129Z,42.60
2022-09-03T17:57:52.051Z,42.87
2022-09-03T18:00:59.056Z,42.54
2022-09-03T18:03:39.611Z,42.52
2022-09-03T18:06:34.593Z,42.23
2022-09-03T18:09:22.249Z,42.36
2022-09-03T18:12:26.112Z,43.55
2022-09-03T18:15:16.617Z,43.97
2022-09-03T18:18:04.164Z,43.87
2022-09-03T18:21:22.951Z,43.90
2022-09-03T18:24:38.903Z,45.19
2022-09-03T18:27:45.614Z,47.72
2022-09-03T18:30:33.714Z,50.05
2022-09-03T18:33:22.143Z,51.81
2022-09-03T18:36:10.186Z,52.18
2022-09-03T18:39:00.369Z,52.96
2022-09-03T18:42:23.876Z,53.86
2022-09-03T18:45:49.074Z,54.67
2022-09-03T18:48:53.446Z,55.35
2022-09-03T18:52:32.266Z,56.26
2022-09-03T18:55:20.123Z,56.67
2022-09-03T18:58:20.663Z,57.97
2022-09-03T19:01:26.521Z,58.74
2022-09-03T19:04:31.662Z,57.32
2022-09-03T19:07:31.256Z,58.11
2022-09-03T19:10:29.960Z,58.54
2022-09-03T19:13:30.834Z,59.14
2022-09-03T19:16:30.591Z,60.67
2022-09-03T19:19:25.986Z,60.18
2022-09-03T19:22:35.140Z,61.18
2022-09-03T19:25:29.990Z,61.53
2022-09-03T19:28:33.547Z,61.93
2022-09-03T19:31:31.061Z,61.50
2022-09-03T19:34:49.244Z,61.72
2022-09-03T19:37:50.245Z,62.00
2022-09-03T19:40:52.724Z,63.04
2022-09-03T19:44:02.271Z,62.79
2022-09-03T19:47:08.042Z,62.49
2022-09-03T19:50:13.776Z,63.20
2022-09-03T19:53:14.412Z,63.58
2022-09-03T19:56:07.864Z,63.36
2022-09-03T19:59:00.576Z,62.40
2022-09-03T20:01:53.768Z,63.62
2022-09-03T20:04:48.986Z,64.14
2022-09-03T20:07:38.676Z,64.14
2022-09-03T20:10:24.946Z,64.80
2022-09-03T20:13:19.377Z,64.91
2022-09-03T20:16:21.968Z,65.33
2022-09-03T20:19:28.349Z,65.74
2022-09-03T20:22:16.404Z,65.58
2022-09-03T20:24:59.682Z,66.17
2022-09-03T20:28:03.804Z,66.58
2022-09-03T20:30:37.130Z,66.88
2022-09-03T20:33:24.801Z,67.13
2022-09-03T20:36:09.664Z,66.95
2022-09-03T20:38:53.322Z,67.19
2022-09-03T20:41:49.084Z,67.27
2022-09-03T20:44:58.430Z,67.24
2022-09-03T20:47:36.478Z,67.10
2022-09-03T20:51:01.447Z,66.74
2022-09-03T20:53:43.348Z,65.85
2022-09-03T20:56:54.141Z,66.19
2022-09-03T21:00:04.792Z,67.05
2022-09-03T21:02:58.772Z,67.38
2022-09-03T21:05:50.193Z,67.60
2022-09-03T21:08:46.247Z,67.77
2022-09-03T21:11:29.579Z,68.28
2022-09-03T21:14:17.481Z,68.56
2022-09-03T21:17:00.154Z,68.43
2022-09-03T21:20:16.906Z,68.54
2022-09-03T21:23:13.121Z,68.55
2022-09-03T21:25:52.276Z,68.75
2022-09-03T21:28:40.419Z,68.87
2022-09-03T21:31:39.031Z,68.59
2022-09-03T21:34:19.286Z,68.68
2022-09-03T21:36:48.707Z,69.04
2022-09-03T21:39:34.136Z,69.15
2022-09-03T21:42:17.730Z,68.95
2022-09-03T21:45:00.327Z,68.88
2022-09-03T21:47:31.738Z,68.88
2022-09-03T21:50:16.503Z,68.89
2022-09-03T21:53:02.955Z,68.88
2022-09-03T21:55:35.752Z,69.16
2022-09-03T21:58:19.681Z,69.26
2022-09-03T22:00:51.959Z,69.01
2022-09-03T22:03:20.236Z,69.08
2022-09-03T22:06:25.155Z,69.17
2022-09-03T22:09:24.544Z,69.31
2022-09-03T22:12:06.826Z,69.36
2022-09-03T22:14:46.386Z,69.65
2022-09-03T22:17:28.434Z,69.91
2022-09-03T22:19:56.246Z,69.97
2022-09-03T22:22:57.546Z,70.15
2022-09-03T22:25:45.162Z,70.11
2022-09-03T22:28:42.192Z,70.15
2022-09-03T22:31:33.263Z,69.93
2022-09-03T22:34:24.920Z,70.21
2022-09-03T22:37:06.725Z,70.45
2022-09-03T22:39:39.629Z,70.21
2022-09-03T22:42:15.202Z,70.47
2022-09-03T22:44:51.180Z,70.20
2022-09-03T22:47:29.966Z,70.26
2022-09-03T22:50:25.130Z,70.58
2022-09-03T22:53:34.255Z,70.67
2022-09-03T22:56:09.535Z,70.56
2022-09-03T22:58:48.520Z,70.66
2022-09-03T23:01:34.810Z,70.63
2022-09-03T23:04:22.795Z,70.78
2022-09-03T23:07:19.956Z,70.68
2022-09-03T23:10:24.389Z,71.00
2022-09-03T23:13:09.540Z,70.85
2022-09-03T23:15:41.801Z,71.05
2022-09-03T23:18:15.433Z,70.82
2022-09-03T23:20:55.356Z,70.89
2022-09-03T23:23:53.962Z,70.93
2022-09-03T23:26:51.478Z,71.11
2022-09-03T23:29:40.419Z,71.23
2022-09-03T23:32:09.418Z,71.33
2022-09-03T23:34:40.555Z,71.06
2022-09-03T23:37:34.232Z,70.78
2022-09-03T23:40:19.276Z,70.79
2022-09-03T23:43:14.562Z,70.55
2022-09-03T23:46:07.121Z,70.50
2022-09-03T23:48:55.730Z,70.47
2022-09-03T23:51:53.658Z,70.94
2022-09-03T23:54:45.204Z,70.64
2022-09-03T23:57:38.482Z,70.64
